createdAt,value
2023-04-17T00:01:20.204Z,9.53
2023-04-17T00:03:47.213Z,9.43
2023-04-17T00:06:14.066Z,9.25
2023-04-17T00:08:40.669Z,9.43
2023-04-17T00:11:08.848Z,9.35
2023-04-17T00:13:36.817Z,9.41
2023-04-17T00:16:03.329Z,9.36
2023-04-17T00:18:29.988Z,9.44
2023-04-17T00:20:56.552Z,9.49
2023-04-17T00:23:23.071Z,9.51
2023-04-17T00:25:49.555Z,9.56
2023-04-17T00:28:16.015Z,9.56
2023-04-17T00:30:42.500Z,9.50
2023-04-17T00:33:09.011Z,9.47
2023-04-17T00:35:35.618Z,9.54
2023-04-17T00:38:02.097Z,9.60
2023-04-17T00:40:28.592Z,9.55
2023-04-17T00:43:03.591Z,9.51
2023-04-17T00:45:31.252Z,9.49
2023-04-17T00:48:01.491Z,9.50
2023-04-17T00:50:29.142Z,9.40
2023-04-17T00:52:55.885Z,9.32
2023-04-17T00:55:23.094Z,9.42
2023-04-17T00:57:50.539Z,9.42
2023-04-17T01:00:18.308Z,9.20
2023-04-17T01:02:46.690Z,9.33
2023-04-17T01:05:14.207Z,9.34
2023-04-17T01:07:41.922Z,9.40
2023-04-17T01:10:09.920Z,9.43
2023-04-17T01:12:36.655Z,9.45
2023-04-17T01:15:03.479Z,9.41
2023-04-17T01:17:30.005Z,9.42
2023-04-17T01:19:57.551Z,9.53
2023-04-17T01:22:24.082Z,9.56
2023-04-17T01:24:50.809Z,9.42
2023-04-17T01:27:17.305Z,9.37
2023-04-17T01:29:44.732Z,9.43
2023-04-17T01:32:11.455Z,9.46
2023-04-17T01:34:37.969Z,9.21
2023-04-17T01:37:04.815Z,9.16
2023-04-17T01:39:31.416Z,9.26
2023-04-17T01:41:58.001Z,9.32
2023-04-17T01:44:24.871Z,9.41
2023-04-17T01:46:51.378Z,9.47
2023-04-17T01:49:17.870Z,9.48
2023-04-17T01:51:44.378Z,9.39
2023-04-17T01:54:10.972Z,9.32
2023-04-17T01:56:37.525Z,9.17
2023-04-17T01:59:04.053Z,9.17
2023-04-17T02:01:31.240Z,9.27
2023-04-17T02:03:57.896Z,9.39
2023-04-17T02:06:24.888Z,9.40
2023-04-17T02:08:51.430Z,9.36
2023-04-17T02:11:18.376Z,9.31
2023-04-17T02:13:44.843Z,9.21
2023-04-17T02:16:12.487Z,9.21
2023-04-17T02:18:41.333Z,9.31
2023-04-17T02:21:09.657Z,9.22
2023-04-17T02:23:36.561Z,9.21
2023-04-17T02:26:03.160Z,9.32
2023-04-17T02:28:29.650Z,9.42
2023-04-17T02:30:56.193Z,9.50
2023-04-17T02:33:22.861Z,9.53
2023-04-17T02:35:49.344Z,9.47
2023-04-17T02:38:15.840Z,9.50
2023-04-17T02:40:42.289Z,9.51
2023-04-17T02:43:08.969Z,9.49
2023-04-17T02:45:35.576Z,9.34
2023-04-17T02:48:02.926Z,9.35
2023-04-17T02:50:29.443Z,9.42
2023-04-17T02:52:55.894Z,9.50
2023-04-17T02:55:22.560Z,9.50
2023-04-17T02:57:48.981Z,9.48
2023-04-17T03:00:15.734Z,9.45
2023-04-17T03:02:42.388Z,9.27
2023-04-17T03:05:11.455Z,9.14
2023-04-17T03:07:37.965Z,9.08
2023-04-17T03:10:04.849Z,9.13
2023-04-17T03:12:31.323Z,9.22
2023-04-17T03:14:57.857Z,9.17
2023-04-17T03:17:24.345Z,9.15
2023-04-17T03:19:51.231Z,9.16
2023-04-17T03:22:17.889Z,9.01
2023-04-17T03:24:44.352Z,8.92
2023-04-17T03:27:11.093Z,9.00
2023-04-17T03:29:37.701Z,9.00
2023-04-17T03:32:04.474Z,8.87
2023-04-17T03:34:31.476Z,8.91
2023-04-17T03:36:58.839Z,9.05
2023-04-17T03:39:25.357Z,9.15
2023-04-17T03:41:51.857Z,9.00
2023-04-17T03:44:19.124Z,8.95
2023-04-17T03:46:45.800Z,8.95
2023-04-17T03:49:12.547Z,8.98
2023-04-17T03:51:39.233Z,9.02
2023-04-17T03:54:05.811Z,9.15
2023-04-17T03:56:32.370Z,9.22
2023-04-17T03:58:59.125Z,9.29
2023-04-17T04:01:28.143Z,9.29
2023-04-17T04:03:55.528Z,9.28
2023-04-17T04:06:22.496Z,9.35
2023-04-17T04:08:49.489Z,9.32
2023-04-17T04:11:16.703Z,9.16
2023-04-17T04:13:43.252Z,9.22
2023-04-17T04:16:09.949Z,9.22
2023-04-17T04:18:37.094Z,9.20
2023-04-17T04:21:03.856Z,9.19
2023-04-17T04:23:30.567Z,9.17
2023-04-17T04:25:57.887Z,9.16
2023-04-17T04:28:24.497Z,9.24
2023-04-17T04:30:53.580Z,9.22
2023-04-17T04:33:21.010Z,9.31
2023-04-17T04:35:48.551Z,9.41
2023-04-17T04:38:17.176Z,9.45
2023-04-17T04:40:52.059Z,9.51
2023-04-17T04:43:21.649Z,9.40
2023-04-17T04:45:48.750Z,9.32
2023-04-17T04:48:15.298Z,9.10
2023-04-17T04:50:41.807Z,9.21
2023-04-17T04:53:08.256Z,9.30
2023-04-17T04:55:34.793Z,9.33
2023-04-17T04:58:01.236Z,9.29
2023-04-17T05:00:27.732Z,9.46
2023-04-17T05:02:54.469Z,9.42
2023-04-17T05:05:21.270Z,9.49
2023-04-17T05:07:47.722Z,9.52
2023-04-17T05:10:14.227Z,9.49
2023-04-17T05:12:41.612Z,9.44
2023-04-17T05:15:08.851Z,9.40
2023-04-17T05:17:36.383Z,9.53
2023-04-17T05:20:06.834Z,9.65
2023-04-17T05:22:33.295Z,9.74
2023-04-17T05:24:59.788Z,9.85
2023-04-17T05:27:29.124Z,9.95
2023-04-17T05:29:55.694Z,9.89
2023-04-17T05:32:22.507Z,9.90
2023-04-17T05:34:49.259Z,9.95
2023-04-17T05:37:15.794Z,10.00
2023-04-17T05:39:42.255Z,10.07
2023-04-17T05:42:08.780Z,9.90
2023-04-17T05:44:35.214Z,9.78
2023-04-17T05:47:01.706Z,9.60
2023-04-17T05:49:28.292Z,9.70
2023-04-17T05:51:54.927Z,9.79
2023-04-17T05:54:21.377Z,9.82
2023-04-17T05:56:49.313Z,9.89
2023-04-17T05:59:15.985Z,10.03
2023-04-17T06:01:43.542Z,10.07
2023-04-17T06:04:10.273Z,9.81
2023-04-17T06:06:37.261Z,9.84
2023-04-17T06:09:05.639Z,9.88
2023-04-17T06:11:32.394Z,9.90
2023-04-17T06:13:58.925Z,9.99
2023-04-17T06:16:25.533Z,9.98
2023-04-17T06:18:52.071Z,10.05
2023-04-17T06:21:18.583Z,10.18
2023-04-17T06:23:45.436Z,10.11
2023-04-17T06:26:12.419Z,10.17
2023-04-17T06:28:38.895Z,10.13
2023-04-17T06:31:05.540Z,10.23
2023-04-17T06:33:32.434Z,10.32
2023-04-17T06:35:58.911Z,10.40
2023-04-17T06:38:25.379Z,10.53
2023-04-17T06:40:52.836Z,10.67
2023-04-17T06:43:19.504Z,10.60
2023-04-17T06:45:46.752Z,10.52
2023-04-17T06:48:13.222Z,10.45
2023-04-17T06:50:39.698Z,10.08
2023-04-17T06:53:06.414Z,10.20
2023-04-17T06:55:32.946Z,10.41
2023-04-17T06:57:59.447Z,10.23
2023-04-17T07:00:26.288Z,10.17
2023-04-17T07:02:52.940Z,10.21
2023-04-17T07:05:19.647Z,10.21
2023-04-17T07:07:46.144Z,10.19
2023-04-17T07:10:15.648Z,10.27
2023-04-17T07:12:42.119Z,10.38
2023-04-17T07:15:09.454Z,10.53
2023-04-17T07:17:36.021Z,10.72
2023-04-17T07:20:05.210Z,10.97
2023-04-17T07:22:34.482Z,10.96
2023-04-17T07:25:00.966Z,10.59
2023-04-17T07:27:27.516Z,10.29
2023-04-17T07:29:55.090Z,10.21
2023-04-17T07:32:24.788Z,9.99
2023-04-17T07:34:51.362Z,9.87
2023-04-17T07:37:17.859Z,9.86
2023-04-17T07:39:45.291Z,10.24
2023-04-17T07:42:11.842Z,10.57
2023-04-17T07:44:39.065Z,10.84
2023-04-17T07:47:05.643Z,10.83
2023-04-17T07:49:32.356Z,10.36
2023-04-17T07:51:58.988Z,10.57
2023-04-17T07:54:25.591Z,10.37
2023-04-17T07:56:52.066Z,10.51
2023-04-17T07:59:18.636Z,10.69
2023-04-17T08:01:45.135Z,10.91
2023-04-17T08:04:11.982Z,10.70
2023-04-17T08:06:39.015Z,10.52
2023-04-17T08:09:05.785Z,10.52
2023-04-17T08:11:40.028Z,10.64
2023-04-17T08:14:12.744Z,11.01
2023-04-17T08:16:39.289Z,10.75
2023-04-17T08:19:05.777Z,10.82
2023-04-17T08:21:32.642Z,10.77
2023-04-17T08:23:59.186Z,10.56
2023-04-17T08:26:25.704Z,10.44
2023-04-17T08:28:53.610Z,10.30
2023-04-17T08:31:20.346Z,10.27
2023-04-17T08:33:46.847Z,10.58
2023-04-17T08:36:13.346Z,10.88
2023-04-17T08:38:39.868Z,10.63
2023-04-17T08:41:13.251Z,10.53
2023-04-17T08:43:41.201Z,10.82
2023-04-17T08:46:08.014Z,11.00
2023-04-17T08:48:34.843Z,11.21
2023-04-17T08:51:13.206Z,11.55
2023-04-17T08:53:45.008Z,11.28
2023-04-17T08:56:11.473Z,11.51
2023-04-17T08:58:38.007Z,11.52
2023-04-17T09:01:15.601Z,11.03
2023-04-17T09:03:45.149Z,11.00
2023-04-17T09:06:12.801Z,11.21
2023-04-17T09:08:55.861Z,11.44
2023-04-17T09:11:22.500Z,11.34
2023-04-17T09:13:49.106Z,11.60
2023-04-17T09:16:16.043Z,11.89
2023-04-17T09:18:48.302Z,12.04
2023-04-17T09:21:32.958Z,11.90
2023-04-17T09:23:59.700Z,11.85
2023-04-17T09:26:35.737Z,11.80
2023-04-17T09:29:18.509Z,12.10
2023-04-17T09:31:46.047Z,11.82
2023-04-17T09:34:13.713Z,11.87
2023-04-17T09:36:43.048Z,11.89
2023-04-17T09:39:23.962Z,12.12
2023-04-17T09:42:02.323Z,12.40
2023-04-17T09:44:30.159Z,12.54
2023-04-17T09:46:57.575Z,12.65
2023-04-17T09:49:34.048Z,12.58
2023-04-17T09:52:00.972Z,12.65
2023-04-17T09:54:31.590Z,12.86
2023-04-17T09:57:02.781Z,13.07
2023-04-17T09:59:30.624Z,13.30
2023-04-17T10:01:57.580Z,13.15
2023-04-17T10:04:24.298Z,13.31
2023-04-17T10:06:50.950Z,13.40
2023-04-17T10:09:17.374Z,13.42
2023-04-17T10:11:46.984Z,13.49
2023-04-17T10:14:27.941Z,13.28
2023-04-17T10:16:54.813Z,13.44
2023-04-17T10:19:36.564Z,13.20
2023-04-17T10:22:19.527Z,13.26
2023-04-17T10:24:51.766Z,13.49
2023-04-17T10:27:27.295Z,13.30
2023-04-17T10:29:58.116Z,12.99
2023-04-17T10:32:28.908Z,13.20
2023-04-17T10:35:00.923Z,13.31
2023-04-17T10:37:52.415Z,13.22
2023-04-17T10:40:23.015Z,13.36
2023-04-17T10:43:25.217Z,13.52
2023-04-17T10:46:12.520Z,13.55
2023-04-17T10:48:56.403Z,13.67
2023-04-17T10:51:29.025Z,13.76
2023-04-17T10:54:10.042Z,13.80
2023-04-17T10:56:40.073Z,13.99
2023-04-17T10:59:13.034Z,14.12
2023-04-17T11:01:49.173Z,14.15
2023-04-17T11:04:30.337Z,14.05
2023-04-17T11:06:57.949Z,13.91
2023-04-17T11:09:29.633Z,14.00
2023-04-17T11:12:01.870Z,14.08
2023-04-17T11:14:30.101Z,14.05
2023-04-17T11:16:56.803Z,14.09
2023-04-17T11:19:26.197Z,14.08
2023-04-17T11:21:57.226Z,14.14
2023-04-17T11:24:31.931Z,13.98
2023-04-17T11:27:00.898Z,14.08
2023-04-17T11:29:28.228Z,14.27
2023-04-17T11:31:56.832Z,14.47
2023-04-17T11:34:26.568Z,14.45
2023-04-17T11:37:00.199Z,14.71
2023-04-17T11:39:31.106Z,14.83
2023-04-17T11:41:58.053Z,14.77
2023-04-17T11:44:25.839Z,14.74
2023-04-17T11:46:54.728Z,14.67
2023-04-17T11:49:38.833Z,14.77
2023-04-17T11:52:06.258Z,14.58
2023-04-17T11:54:37.988Z,14.62
2023-04-17T11:57:13.632Z,14.61
2023-04-17T11:59:42.335Z,14.62
2023-04-17T12:02:10.149Z,14.39
2023-04-17T12:04:39.432Z,14.74
2023-04-17T12:07:08.446Z,14.95
2023-04-17T12:09:35.811Z,15.10
2023-04-17T12:12:06.434Z,15.23
2023-04-17T12:14:33.226Z,15.24
2023-04-17T12:16:59.862Z,15.39
2023-04-17T12:19:27.311Z,15.23
2023-04-17T12:21:54.401Z,15.34
2023-04-17T12:24:22.867Z,15.50
2023-04-17T12:26:51.596Z,15.47
2023-04-17T12:29:22.081Z,15.39
2023-04-17T12:31:56.379Z,15.48
2023-04-17T12:34:23.086Z,15.52
2023-04-17T12:36:51.020Z,15.71
2023-04-17T12:39:17.694Z,15.79
2023-04-17T12:41:44.208Z,15.65
2023-04-17T12:44:11.302Z,15.67
2023-04-17T12:46:38.173Z,15.58
2023-04-17T12:49:04.801Z,15.48
2023-04-17T12:51:37.285Z,15.50
2023-04-17T12:54:03.909Z,15.44
2023-04-17T12:56:30.596Z,15.62
2023-04-17T12:58:57.162Z,15.76
2023-04-17T13:01:25.232Z,15.79
2023-04-17T13:03:51.986Z,15.72
2023-04-17T13:06:18.648Z,15.63
2023-04-17T13:08:45.186Z,15.64
2023-04-17T13:11:11.676Z,15.51
2023-04-17T13:13:38.176Z,15.61
2023-04-17T13:16:05.269Z,15.52
2023-04-17T13:18:31.733Z,15.21
2023-04-17T13:20:58.220Z,15.10
2023-04-17T13:23:24.713Z,14.98
2023-04-17T13:25:51.260Z,15.08
2023-04-17T13:28:17.887Z,15.02
2023-04-17T13:30:44.460Z,14.85
2023-04-17T13:33:11.013Z,14.21
2023-04-17T13:35:37.545Z,14.19
2023-04-17T13:38:04.712Z,14.42
2023-04-17T13:40:31.304Z,14.75
2023-04-17T13:42:58.371Z,14.95
2023-04-17T13:45:24.945Z,15.15
2023-04-17T13:47:51.469Z,15.27
2023-04-17T13:50:18.101Z,15.32
2023-04-17T13:52:44.621Z,15.32
2023-04-17T13:55:14.325Z,15.35
2023-04-17T13:57:40.878Z,15.33
2023-04-17T14:00:08.199Z,15.16
2023-04-17T14:02:37.898Z,15.21
2023-04-17T14:05:05.614Z,15.29
2023-04-17T14:07:32.242Z,15.35
2023-04-17T14:09:58.778Z,15.48
2023-04-17T14:12:25.364Z,15.60
2023-04-17T14:14:51.789Z,15.42
2023-04-17T14:17:18.360Z,15.15
2023-04-17T14:19:44.961Z,15.00
2023-04-17T14:22:11.495Z,14.94
2023-04-17T14:24:37.977Z,14.98
2023-04-17T14:27:04.499Z,14.79
2023-04-17T14:29:31.035Z,14.63
2023-04-17T14:31:57.586Z,14.69
2023-04-17T14:34:24.134Z,14.66
2023-04-17T14:36:50.849Z,14.59
2023-04-17T14:39:17.400Z,14.14
2023-04-17T14:41:43.916Z,14.24
2023-04-17T14:44:10.590Z,14.42
2023-04-17T14:46:37.244Z,14.51
2023-04-17T14:49:03.876Z,14.78
2023-04-17T14:51:30.866Z,14.93
2023-04-17T14:53:57.516Z,15.00
2023-04-17T14:56:24.288Z,15.19
2023-04-17T14:58:50.963Z,15.15
2023-04-17T15:01:17.541Z,15.08
2023-04-17T15:03:46.848Z,15.00
2023-04-17T15:06:15.600Z,14.90
2023-04-17T15:08:42.188Z,15.00
2023-04-17T15:11:08.913Z,14.64
2023-04-17T15:13:35.883Z,14.40
2023-04-17T15:16:02.743Z,14.49
2023-04-17T15:18:29.268Z,14.49
2023-04-17T15:20:56.287Z,14.21
2023-04-17T15:23:25.255Z,14.19
2023-04-17T15:25:54.081Z,14.34
2023-04-17T15:28:20.929Z,14.30
2023-04-17T15:30:47.446Z,14.45
2023-04-17T15:33:13.961Z,14.41
2023-04-17T15:35:40.537Z,14.35
2023-04-17T15:38:07.548Z,14.39
2023-04-17T15:40:34.156Z,14.62
2023-04-17T15:43:01.607Z,15.13
2023-04-17T15:45:28.262Z,15.48
2023-04-17T15:47:55.244Z,15.05
2023-04-17T15:50:22.097Z,15.08
2023-04-17T15:52:48.591Z,15.16
2023-04-17T15:55:15.661Z,15.24
2023-04-17T15:57:43.199Z,15.10
2023-04-17T16:00:10.805Z,14.87
2023-04-17T16:02:37.575Z,14.94
2023-04-17T16:05:04.692Z,14.72
2023-04-17T16:07:32.094Z,14.73
2023-04-17T16:09:59.194Z,14.79
2023-04-17T16:12:27.896Z,14.83
2023-04-17T16:14:54.576Z,14.69
2023-04-17T16:17:21.225Z,14.63
2023-04-17T16:19:49.601Z,14.70
2023-04-17T16:22:18.461Z,14.56
2023-04-17T16:24:45.007Z,14.54
2023-04-17T16:27:11.520Z,14.38
2023-04-17T16:29:38.143Z,14.41
2023-04-17T16:32:04.732Z,14.43
2023-04-17T16:34:31.233Z,14.57
2023-04-17T16:36:57.717Z,14.67
2023-04-17T16:39:24.397Z,14.46
2023-04-17T16:41:52.539Z,14.56
2023-04-17T16:44:19.041Z,14.64
2023-04-17T16:47:05.584Z,14.76
2023-04-17T16:49:32.003Z,14.55
2023-04-17T16:51:59.211Z,14.60
2023-04-17T16:54:26.144Z,14.74
2023-04-17T16:56:52.650Z,14.85
2023-04-17T16:59:19.205Z,14.40
2023-04-17T17:01:47.160Z,14.46
2023-04-17T17:04:13.852Z,14.47
2023-04-17T17:06:40.410Z,14.32
2023-04-17T17:09:06.989Z,14.32
2023-04-17T17:11:33.523Z,14.02
2023-04-17T17:14:00.057Z,13.64
2023-04-17T17:16:26.638Z,13.62
2023-04-17T17:18:53.136Z,13.62
2023-04-17T17:21:19.631Z,13.80
2023-04-17T17:23:46.102Z,14.07
2023-04-17T17:26:12.626Z,14.15
2023-04-17T17:28:39.159Z,14.03
2023-04-17T17:31:07.926Z,13.94
2023-04-17T17:33:35.804Z,13.90
2023-04-17T17:36:03.040Z,13.91
2023-04-17T17:38:30.737Z,13.88
2023-04-17T17:40:57.473Z,13.98
2023-04-17T17:43:24.175Z,13.97
2023-04-17T17:45:50.944Z,13.94
2023-04-17T17:48:18.179Z,13.91
2023-04-17T17:50:44.896Z,13.85
2023-04-17T17:53:12.899Z,13.64
2023-04-17T17:55:39.905Z,13.55
2023-04-17T17:58:08.379Z,13.61
2023-04-17T18:00:35.402Z,13.66
2023-04-17T18:03:02.123Z,13.67
2023-04-17T18:05:28.921Z,13.69
2023-04-17T18:07:55.745Z,13.72
2023-04-17T18:10:22.267Z,13.72
2023-04-17T18:12:49.731Z,13.55
2023-04-17T18:15:16.449Z,13.48
2023-04-17T18:17:43.072Z,13.42
2023-04-17T18:20:10.296Z,13.42
2023-04-17T18:22:38.246Z,13.28
2023-04-17T18:25:06.964Z,13.01
2023-04-17T18:27:36.224Z,12.90
2023-04-17T18:30:08.411Z,12.83
2023-04-17T18:32:35.973Z,12.73
2023-04-17T18:35:02.886Z,12.71
2023-04-17T18:37:29.413Z,12.69
2023-04-17T18:39:56.025Z,12.59
2023-04-17T18:42:22.818Z,12.57
2023-04-17T18:44:49.882Z,12.60
2023-04-17T18:47:16.750Z,12.52
2023-04-17T18:49:43.390Z,12.43
2023-04-17T18:52:09.908Z,12.21
2023-04-17T18:54:36.627Z,12.13
2023-04-17T18:57:03.238Z,12.10
2023-04-17T18:59:30.176Z,12.01
2023-04-17T19:01:56.822Z,11.86
2023-04-17T19:04:23.443Z,11.80
2023-04-17T19:06:50.138Z,11.74
2023-04-17T19:09:16.633Z,11.67
2023-04-17T19:11:43.399Z,11.81
2023-04-17T19:14:09.962Z,11.75
2023-04-17T19:16:36.581Z,11.82
2023-04-17T19:19:05.380Z,11.80
2023-04-17T19:21:32.716Z,11.73
2023-04-17T19:23:59.209Z,11.69
2023-04-17T19:26:25.799Z,11.63
2023-04-17T19:28:52.264Z,11.61
2023-04-17T19:31:18.806Z,11.47
2023-04-17T19:33:45.330Z,11.46
2023-04-17T19:36:11.798Z,11.40
2023-04-17T19:38:38.355Z,11.45
2023-04-17T19:41:17.793Z,11.42
2023-04-17T19:43:51.672Z,11.53
2023-04-17T19:46:20.422Z,11.40
2023-04-17T19:48:48.179Z,11.33
2023-04-17T19:51:15.841Z,11.31
2023-04-17T19:53:44.905Z,11.17
2023-04-17T19:56:11.572Z,11.13
2023-04-17T19:58:38.596Z,11.17
2023-04-17T20:01:05.550Z,11.00
2023-04-17T20:03:33.160Z,10.91
2023-04-17T20:06:00.441Z,10.68
2023-04-17T20:08:27.069Z,10.47
2023-04-17T20:10:53.740Z,10.40
2023-04-17T20:13:21.291Z,10.22
2023-04-17T20:15:47.798Z,10.16
2023-04-17T20:18:14.345Z,10.16
2023-04-17T20:20:40.826Z,10.23
2023-04-17T20:23:07.267Z,10.23
2023-04-17T20:25:33.829Z,10.12
2023-04-17T20:28:02.638Z,10.09
2023-04-17T20:30:29.419Z,10.04
2023-04-17T20:32:56.163Z,9.97
2023-04-17T20:35:24.480Z,9.95
2023-04-17T20:37:51.883Z,9.86
2023-04-17T20:40:19.142Z,9.87
2023-04-17T20:42:46.691Z,9.97
2023-04-17T20:45:13.430Z,10.05
2023-04-17T20:47:56.000Z,9.96
2023-04-17T20:50:24.934Z,9.84
2023-04-17T20:52:51.417Z,9.85
2023-04-17T20:55:19.558Z,9.87
2023-04-17T20:57:46.256Z,9.61
2023-04-17T21:00:13.349Z,9.35
2023-04-17T21:02:40.033Z,9.09
2023-04-17T21:05:07.715Z,8.99
2023-04-17T21:07:34.255Z,9.00
2023-04-17T21:10:00.830Z,8.91
2023-04-17T21:12:27.395Z,8.81
2023-04-17T21:14:53.875Z,8.92
2023-04-17T21:17:20.342Z,8.94
2023-04-17T21:19:47.324Z,8.96
2023-04-17T21:22:13.794Z,8.93
2023-04-17T21:24:40.369Z,8.78
2023-04-17T21:27:06.840Z,8.72
2023-04-17T21:29:33.307Z,8.66
2023-04-17T21:31:59.881Z,8.73
2023-04-17T21:34:26.574Z,8.73
2023-04-17T21:36:54.210Z,8.68
2023-04-17T21:39:21.770Z,8.74
2023-04-17T21:41:48.288Z,8.66
2023-04-17T21:44:15.283Z,8.61
2023-04-17T21:46:45.947Z,8.56
2023-04-17T21:49:12.489Z,8.56
2023-04-17T21:51:39.178Z,8.44
2023-04-17T21:54:05.793Z,8.40
2023-04-17T21:56:32.299Z,8.35
2023-04-17T21:58:58.765Z,8.39
2023-04-17T22:01:25.356Z,8.32
2023-04-17T22:03:51.941Z,8.08
2023-04-17T22:06:18.873Z,7.97
2023-04-17T22:08:46.228Z,7.97
2023-04-17T22:11:12.701Z,7.89
2023-04-17T22:13:39.220Z,7.89
2023-04-17T22:16:06.418Z,7.95
2023-04-17T22:18:32.916Z,7.87
2023-04-17T22:20:59.424Z,7.82
2023-04-17T22:23:25.904Z,7.71
2023-04-17T22:25:52.405Z,7.59
2023-04-17T22:28:18.955Z,7.49
2023-04-17T22:30:45.481Z,7.40
2023-04-17T22:33:11.984Z,7.46
2023-04-17T22:35:38.466Z,7.46
2023-04-17T22:38:04.942Z,7.27
2023-04-17T22:40:31.517Z,7.25
2023-04-17T22:42:57.969Z,7.06
2023-04-17T22:45:24.446Z,7.18
2023-04-17T22:47:50.974Z,7.11
2023-04-17T22:50:18.059Z,6.95
2023-04-17T22:52:44.580Z,6.95
2023-04-17T22:55:11.329Z,7.00
2023-04-17T22:57:38.017Z,6.91
2023-04-17T23:00:07.436Z,6.84
2023-04-17T23:02:33.985Z,6.75
2023-04-17T23:05:00.546Z,6.64
2023-04-17T23:07:27.323Z,6.69
2023-04-17T23:09:53.852Z,6.64
2023-04-17T23:12:20.940Z,6.54
2023-04-17T23:14:50.325Z,6.56
2023-04-17T23:17:16.852Z,6.70
2023-04-17T23:19:43.383Z,6.75
2023-04-17T23:22:09.998Z,6.76
2023-04-17T23:24:36.547Z,6.63
2023-04-17T23:27:03.076Z,6.47
2023-04-17T23:29:29.667Z,6.41
2023-04-17T23:31:56.179Z,6.41
2023-04-17T23:34:22.658Z,6.37
2023-04-17T23:36:49.170Z,6.05
2023-04-17T23:39:15.612Z,6.11
2023-04-17T23:41:45.586Z,5.98
2023-04-17T23:44:12.246Z,6.04
2023-04-17T23:46:38.941Z,5.81
2023-04-17T23:49:05.499Z,5.59
2023-04-17T23:51:32.012Z,5.64
2023-04-17T23:54:00.925Z,5.68
2023-04-17T23:56:29.787Z,5.68
2023-04-17T23:58:57.034Z,5.52
